Date,TemperatureHighF,TemperatureAvgF,TemperatureLowF,DewpointHighF,DewpointAvgF,DewpointLowF,HumidityHigh,HumidityAvg,HumidityLow,PressureMaxIn,PressureMinIn,WindSpeedMaxMPH,WindSpeedAvgMPH,GustSpeedMaxMPH,PrecipitationSumIn
2013-9-1,81.1,70.7,61.7,73.3,65.9,60.8,98,86,65,29.74,29.61,8,3,0,0.01
2013-9-2,66.9,61.6,55.8,61.9,55.6,52.3,92,81,68,29.92,29.74,8,4,0,0.00
2013-9-3,76.1,61.6,47.3,58.0,52.8,46.2,98,76,47,29.99,29.87,7,2,0,0.00
2013-9-4,72.3,63.3,55.9,64.8,58.2,52.0,97,84,74,30.10,29.89,6,2,0,0.05
2013-9-5,71.8,58.9,43.7,56.9,50.6,41.8,95,76,55,30.23,30.10,5,2,0,0.00
2013-9-6,85.5,67.0,46.6,71.1,58.8,43.8,95,77,57,30.15,29.85,8,2,0,0.00
2013-9-7,85.5,73.7,64.6,72.4,67.7,61.9,97,82,63,29.98,29.78,12,3,0,0.55
2013-9-8,73.9,65.2,58.5,61.2,57.8,54.2,94,79,54,30.06,29.89,9,3,0,0.00
2013-9-9,82.6,72.9,62.4,76.2,69.3,60.0,98,89,76,29.91,29.62,10,3,0,0.00
2013-9-10,91.6,80.0,68.5,75.2,71.3,67.2,98,76,54,29.88,29.64,8,3,0,1.41
2013-9-11,82.2,72.8,63.9,70.5,66.8,59.0,98,83,58,29.94,29.83,7,2,0,0.58
2013-9-12,70.5,61.4,53.1,60.2,54.5,44.5,98,79,55,30.08,29.86,12,4,0,0.00
2013-9-13,61.9,53.0,44.6,48.4,44.4,40.8,91,73,59,30.16,30.06,11,4,0,0.03
2013-9-14,69.6,56.0,40.3,54.2,47.6,38.4,97,75,54,30.09,29.89,9,2,0,0.00
2013-9-15,65.1,56.9,47.7,58.2,53.1,41.9,96,88,76,30.20,29.89,11,3,0,0.43
2013-9-16,60.3,50.9,37.9,50.7,44.7,35.5,94,80,64,30.34,30.20,7,3,0,0.00
2013-9-17,68.2,52.7,36.0,57.0,47.7,33.9,95,84,63,30.29,30.03,8,3,0,0.00
2013-9-18,75.6,64.7,56.1,68.5,61.7,53.2,96,90,77,30.03,29.77,12,4,0,0.32
2013-9-19,85.5,74.0,67.3,84.9,71.1,66.1,98,91,76,29.80,29.58,9,4,0,0.29
2013-9-20,72.3,67.1,58.1,68.7,63.1,53.2,98,87,74,29.70,29.58,8,3,0,0.02
2013-9-21,58.8,53.2,46.4,54.0,47.8,40.6,93,82,73,29.89,29.69,8,4,0,0.00
2013-9-22,54.9,47.1,38.1,46.9,42.2,35.7,96,83,71,30.02,29.89,6,1,0,0.00
2013-9-23,65.8,49.1,36.1,53.6,43.8,34.5,97,83,63,30.07,30.00,9,1,0,0.00
2013-9-24,71.4,54.3,41.5,61.4,49.6,39.6,98,85,64,30.02,29.91,5,1,0,0.00
2013-9-25,69.1,54.7,40.6,61.1,51.0,38.7,98,88,68,29.96,29.89,7,1,0,0.00
2013-9-26,74.7,58.6,43.2,60.9,52.8,42.1,98,83,54,30.02,29.93,6,2,0,0.00
2013-9-27,77.7,62.5,50.5,62.6,55.8,50.0,98,81,55,30.08,29.98,9,3,0,0.01
2013-9-28,76.5,65.5,55.6,65.1,60.0,54.2,98,84,59,29.99,29.70,11,6,0,0.40
2013-9-29,69.8,57.0,46.4,54.4,50.3,45.6,98,81,50,29.96,29.83,6,2,0,0.05
2013-9-30,72.0,58.3,46.4,54.5,49.3,41.7,92,74,52,29.90,29.70,11,3,0,0.00